Strona główna
METAR-TAF:

METAR-TAF

Lotnisko :

Port lotniczy Mediolan-Malpensa

Mediolan, Włochy

Szerokość geograficzna: 45-37N, Długość geograficzna: 008-44E, wysokość: 234 m

Aktualna obserwacja pogody

Raport powstał 17 minut temu, godzina 19:20 UTC
Wiatr 5 kt od południe
Temperatura 24°C
Wilgotność 54%
Ciśnienie 1011 hPa
Widzialność 10 km lub więcej
Brak chmur poniżej 1500 m i brak chmur cumulonimbus

METAR: LIMC 171920Z 19005KT CAVOK 24/14 Q1011 NOSIG

czas: 21:37 (19:37 UTC)

Prognoza

Raport powstał 2 godziny i 37 minut temu, godzina 17:00 UTC
Prognoza ważna od 17 godzina 18 UTC do 18 godzina 24 UTC
Wiatr 5 kt z kierunków zmiennych
Widzialność 10 km lub więcej
Brak chmur poniżej 1500 m i brak chmur cumulonimbus
Prawdopodobieństwo 30% :
Przejściowo
od 18 godzina 02 UTC do 18 godzina 08 UTC
burza, deszcz

TAF: LIMC 171700Z 1718/1824 VRB05KT CAVOK PROB30 TEMPO 1802/1808 TSRA

Obserwacja i prognoza pogody dla ponad 4000 lotnisk (raport METAR i TAF).

Dostępne stacje oznaczono żółtymi i czerwonymi punktami na mapie.

Najedź kursorem aby zobaczyć nazwę stacji.

Kliknij aby zobaczyć obserwacje i prognozy pogody.

Aby zmienić mapę: kliknij na zielony przycisk z czarnym krzyżykiem, aby powiększyć; na zielony przycisk z myślnikiem, aby pomniejszyć; na zielone strzałki, aby przejść do map sąsiednich.


METAR-TAF: